createdAt,value
2019-04-16T00:00:11.871Z,54.17
2019-04-16T00:02:51.173Z,56.23
2019-04-16T00:05:27.707Z,52.83
2019-04-16T00:08:01.256Z,59.17
2019-04-16T00:10:38.578Z,57.63
2019-04-16T00:13:28.065Z,54.07
2019-04-16T00:16:00.756Z,54.10
2019-04-16T00:18:31.570Z,56.07
2019-04-16T00:21:41.243Z,59.10
2019-04-16T00:24:30.248Z,52.93
2019-04-16T00:29:39.502Z,55.87
2019-04-16T00:32:29.564Z,57.87
2019-04-16T00:35:00.261Z,54.37
2019-04-16T00:37:30.845Z,55.90
2019-04-16T00:40:01.466Z,58.50
2019-04-16T00:42:32.073Z,56.73
2019-04-16T00:45:02.640Z,60.93
2019-04-16T00:47:33.344Z,57.70
2019-04-16T00:50:04.129Z,62.30
2019-04-16T00:52:37.079Z,62.47
2019-04-16T00:55:07.482Z,66.00
2019-04-16T01:00:14.236Z,59.03
2019-04-16T01:02:46.927Z,62.93
2019-04-16T01:05:18.762Z,63.73
2019-04-16T01:07:49.359Z,59.20
2019-04-16T01:10:19.902Z,64.33
2019-04-16T01:12:50.481Z,62.33
2019-04-16T01:15:21.052Z,61.47
2019-04-16T01:17:51.698Z,58.10
2019-04-16T01:20:22.296Z,60.93
2019-04-16T01:22:52.848Z,60.47
2019-04-16T01:25:24.047Z,62.13
2019-04-16T01:28:00.774Z,62.57
2019-04-16T01:30:47.223Z,62.60
2019-04-16T01:33:27.213Z,58.77
2019-04-16T01:36:04.556Z,65.00
2019-04-16T01:38:40.744Z,61.33
2019-04-16T01:41:13.514Z,62.10
2019-04-16T01:43:44.097Z,64.17
2019-04-16T01:46:14.700Z,63.90
2019-04-16T01:48:45.258Z,64.97
2019-04-16T01:51:16.262Z,58.17
2019-04-16T01:53:49.500Z,63.80
2019-04-16T01:56:19.029Z,62.90
2019-04-16T01:58:49.622Z,63.57
2019-04-16T02:01:20.230Z,61.93
2019-04-16T02:03:50.889Z,65.57
2019-04-16T02:06:25.589Z,67.10
2019-04-16T02:08:53.882Z,69.47
2019-04-16T02:11:24.468Z,65.93
2019-04-16T02:13:55.040Z,65.57
2019-04-16T02:16:26.064Z,63.63
2019-04-16T02:19:00.762Z,68.77
2019-04-16T02:21:28.862Z,64.93
2019-04-16T02:23:59.348Z,77.40
2019-04-16T02:26:29.940Z,71.33
2019-04-16T02:29:00.475Z,70.63
2019-04-16T02:31:31.053Z,75.50
2019-04-16T02:34:01.618Z,71.33
2019-04-16T02:36:32.189Z,70.53
2019-04-16T02:39:02.776Z,74.10
2019-04-16T02:41:35.190Z,73.20
2019-04-16T02:44:05.718Z,71.97
2019-04-16T02:46:36.230Z,72.80
2019-04-16T02:49:06.819Z,75.17
2019-04-16T02:51:44.964Z,71.90
2019-04-16T02:54:35.782Z,71.60
2019-04-16T02:57:38.269Z,69.37
2019-04-16T03:00:22.616Z,70.07
2019-04-16T03:02:59.328Z,74.20
2019-04-16T03:05:32.230Z,70.87
2019-04-16T03:08:04.991Z,76.03
2019-04-16T03:10:35.110Z,73.67
2019-04-16T03:13:05.787Z,77.00
2019-04-16T03:16:02.826Z,76.27
2019-04-16T03:18:49.734Z,79.27
2019-04-16T03:21:20.276Z,79.13
2019-04-16T03:23:50.855Z,78.00
2019-04-16T03:26:21.372Z,81.73
2019-04-16T03:28:51.997Z,83.67
2019-04-16T03:31:23.579Z,82.30
2019-04-16T03:33:54.422Z,80.83
2019-04-16T03:36:26.495Z,83.47
2019-04-16T03:38:58.094Z,82.80
2019-04-16T03:41:28.663Z,82.77
2019-04-16T03:44:03.608Z,84.17
2019-04-16T03:46:31.408Z,85.93
2019-04-16T03:49:02.014Z,82.87
2019-04-16T03:51:35.122Z,83.93
2019-04-16T03:54:05.041Z,83.70
2019-04-16T03:56:35.835Z,77.57
2019-04-16T03:59:10.527Z,84.53
2019-04-16T04:01:38.625Z,84.00
2019-04-16T04:04:09.193Z,84.37
2019-04-16T04:06:40.663Z,82.17
2019-04-16T04:09:11.224Z,85.50
2019-04-16T04:11:41.985Z,84.57
2019-04-16T04:16:47.913Z,85.80
2019-04-16T04:19:18.391Z,89.37
2019-04-16T04:21:50.696Z,88.37
2019-04-16T04:24:21.331Z,87.97
2019-04-16T04:29:41.393Z,83.93
2019-04-16T04:32:11.998Z,86.17
2019-04-16T04:34:42.548Z,92.67
2019-04-16T04:37:13.144Z,82.73
2019-04-16T04:39:44.773Z,83.57
2019-04-16T04:42:18.547Z,84.00
2019-04-16T04:44:47.478Z,81.47
2019-04-16T04:47:19.926Z,83.97
2019-04-16T04:49:50.244Z,84.67
2019-04-16T04:52:20.721Z,85.20
2019-04-16T04:57:40.192Z,82.10
2019-04-16T05:00:11.859Z,85.47
2019-04-16T05:02:43.652Z,85.10
2019-04-16T05:05:33.466Z,89.13
2019-04-16T05:08:04.156Z,88.97
2019-04-16T05:10:36.776Z,89.43
2019-04-16T05:13:06.984Z,89.50
2019-04-16T05:15:37.523Z,87.63
2019-04-16T05:18:09.713Z,90.67
2019-04-16T05:20:40.205Z,87.23
2019-04-16T05:23:10.776Z,84.43
2019-04-16T05:25:41.347Z,87.57
2019-04-16T05:31:07.616Z,83.87
2019-04-16T05:33:38.253Z,86.30
2019-04-16T05:36:11.067Z,86.40
2019-04-16T05:38:40.903Z,88.20
2019-04-16T05:44:01.756Z,85.47
2019-04-16T05:46:32.246Z,89.33
2019-04-16T05:49:02.897Z,91.80
2019-04-16T05:51:33.445Z,91.43
2019-04-16T05:54:15.882Z,96.10
2019-04-16T05:56:52.396Z,98.63
2019-04-16T05:59:22.064Z,94.80
2019-04-16T06:02:19.927Z,94.57
2019-04-16T06:04:50.518Z,91.00
2019-04-16T06:07:22.692Z,90.10
2019-04-16T06:09:53.287Z,96.77
2019-04-16T06:12:25.763Z,97.20
2019-04-16T06:15:10.194Z,94.70
2019-04-16T06:17:58.468Z,93.97
2019-04-16T06:20:53.784Z,92.37
2019-04-16T06:23:52.465Z,94.60
2019-04-16T06:26:30.272Z,96.00
2019-04-16T06:29:19.743Z,101.90
2019-04-16T06:32:11.819Z,94.20
2019-04-16T06:34:57.753Z,94.87
2019-04-16T06:37:46.792Z,96.97
2019-04-16T06:40:34.695Z,96.10
2019-04-16T06:43:10.686Z,92.07
2019-04-16T06:45:51.311Z,100.27
2019-04-16T06:48:27.320Z,92.23
2019-04-16T06:51:16.924Z,95.73
2019-04-16T06:54:04.797Z,91.63
2019-04-16T06:56:51.563Z,96.67
2019-04-16T06:59:37.360Z,101.13
2019-04-16T07:02:30.177Z,93.57
2019-04-16T07:05:12.904Z,90.60
2019-04-16T07:08:01.043Z,97.67
2019-04-16T07:10:44.471Z,95.17
2019-04-16T07:13:11.156Z,88.27
2019-04-16T07:15:41.501Z,90.83
2019-04-16T07:18:12.102Z,91.07
2019-04-16T07:20:45.667Z,87.87
2019-04-16T07:23:14.887Z,93.47
2019-04-16T07:25:45.939Z,94.70
2019-04-16T07:28:30.967Z,94.80
2019-04-16T07:31:33.498Z,83.73
2019-04-16T07:34:09.226Z,87.37
2019-04-16T07:37:00.745Z,86.63
2019-04-16T07:39:38.276Z,83.97
2019-04-16T07:42:18.580Z,83.37
2019-04-16T07:45:11.494Z,84.23
2019-04-16T07:48:00.838Z,77.77
2019-04-16T07:50:53.392Z,81.57
2019-04-16T07:53:38.012Z,83.70
2019-04-16T07:56:14.165Z,83.20
2019-04-16T08:01:33.566Z,82.90
2019-04-16T08:04:04.391Z,79.00
2019-04-16T08:06:35.974Z,82.30
2019-04-16T08:09:07.992Z,82.73
2019-04-16T08:11:39.081Z,84.17
2019-04-16T08:14:10.336Z,84.10
2019-04-16T08:16:47.528Z,74.27
2019-04-16T08:19:15.157Z,77.23
2019-04-16T08:21:45.385Z,80.70
2019-04-16T08:24:24.862Z,82.97
2019-04-16T08:26:56.041Z,78.77
2019-04-16T08:29:26.795Z,80.37
2019-04-16T08:31:57.370Z,75.13
2019-04-16T08:34:27.885Z,78.47
2019-04-16T08:36:58.448Z,74.47
2019-04-16T08:39:28.963Z,82.53
2019-04-16T08:41:59.698Z,83.23
2019-04-16T08:44:35.279Z,84.90
2019-04-16T08:47:02.467Z,83.47
2019-04-16T08:49:33.073Z,85.70
2019-04-16T08:52:03.699Z,83.30
2019-04-16T08:54:34.165Z,81.77
2019-04-16T08:57:04.772Z,82.60
2019-04-16T08:59:35.320Z,81.23
2019-04-16T09:02:05.881Z,79.83
2019-04-16T09:04:36.491Z,81.00
2019-04-16T09:07:11.941Z,85.80
2019-04-16T09:09:57.123Z,82.47
2019-04-16T09:12:25.892Z,87.80
2019-04-16T09:14:56.647Z,84.77
2019-04-16T09:17:30.556Z,78.30
2019-04-16T09:20:12.100Z,83.33
2019-04-16T09:22:49.120Z,79.57
2019-04-16T09:25:42.540Z,81.83
2019-04-16T09:28:25.428Z,82.00
2019-04-16T09:31:18.807Z,86.20
2019-04-16T09:33:57.133Z,77.17
2019-04-16T09:36:51.197Z,77.73
2019-04-16T09:39:52.569Z,78.63
2019-04-16T09:42:23.156Z,73.30
2019-04-16T09:44:53.758Z,81.00
2019-04-16T09:47:24.464Z,78.27
2019-04-16T09:49:55.037Z,78.83
2019-04-16T09:52:25.625Z,78.50
2019-04-16T09:54:56.173Z,73.67
2019-04-16T09:57:31.110Z,80.57
2019-04-16T10:00:00.841Z,81.67
2019-04-16T10:02:36.427Z,74.77
2019-04-16T10:07:42.329Z,79.43
2019-04-16T10:12:55.294Z,82.47
2019-04-16T10:15:25.816Z,84.43
2019-04-16T10:17:58.618Z,84.87
2019-04-16T10:20:28.552Z,80.53
2019-04-16T10:23:00.728Z,79.17
2019-04-16T10:25:33.557Z,81.97
2019-04-16T10:28:16.097Z,79.90
2019-04-16T10:30:54.163Z,81.23
2019-04-16T10:33:24.705Z,81.10
2019-04-16T10:35:57.461Z,79.37
2019-04-16T10:38:44.936Z,78.50
2019-04-16T10:41:29.526Z,78.73
2019-04-16T10:44:17.589Z,76.00
2019-04-16T10:47:16.698Z,80.90
2019-04-16T10:49:54.416Z,80.77
2019-04-16T10:52:37.074Z,83.03
2019-04-16T10:55:29.910Z,84.27
2019-04-16T10:58:31.268Z,80.43
2019-04-16T11:01:32.954Z,81.07
2019-04-16T11:04:19.082Z,78.87
2019-04-16T11:06:50.718Z,82.60
2019-04-16T11:09:21.424Z,80.33
2019-04-16T11:11:51.932Z,79.90
2019-04-16T11:14:22.509Z,79.87
2019-04-16T11:16:53.104Z,74.83
2019-04-16T11:19:23.646Z,79.50
2019-04-16T11:21:54.208Z,86.43
2019-04-16T11:24:24.864Z,82.23
2019-04-16T11:29:30.439Z,85.63
2019-04-16T11:32:00.928Z,77.27
2019-04-16T11:34:32.689Z,76.83
2019-04-16T11:37:07.234Z,76.57
2019-04-16T11:39:35.417Z,78.27
2019-04-16T11:42:05.955Z,83.07
2019-04-16T11:44:36.546Z,75.87
2019-04-16T11:47:07.137Z,76.07
2019-04-16T11:49:37.740Z,67.67
2019-04-16T11:52:08.301Z,68.77
2019-04-16T11:54:38.867Z,73.13
2019-04-16T11:57:12.913Z,74.43
2019-04-16T11:59:41.686Z,71.80
2019-04-16T12:02:40.047Z,67.97
2019-04-16T12:05:17.339Z,71.27
2019-04-16T12:08:12.685Z,70.60
2019-04-16T12:11:05.506Z,70.17
2019-04-16T12:14:04.082Z,66.73
2019-04-16T12:16:41.862Z,72.13
2019-04-16T12:19:29.921Z,70.63
2019-04-16T12:22:14.064Z,69.27
2019-04-16T12:24:57.029Z,63.50
2019-04-16T12:27:52.472Z,65.07
2019-04-16T12:30:40.461Z,69.07
2019-04-16T12:33:42.154Z,67.77
2019-04-16T12:36:28.194Z,69.97
2019-04-16T12:39:19.603Z,68.60
2019-04-16T12:42:06.454Z,69.60
2019-04-16T12:44:58.509Z,65.13
2019-04-16T12:47:45.638Z,70.33
2019-04-16T12:50:50.299Z,62.17
2019-04-16T12:53:55.099Z,62.93
2019-04-16T12:56:42.922Z,64.00
2019-04-16T12:59:22.147Z,62.70
2019-04-16T13:02:00.675Z,56.33
2019-04-16T13:04:49.464Z,56.80
2019-04-16T13:07:23.988Z,52.53
2019-04-16T13:10:12.029Z,58.93
2019-04-16T13:13:19.625Z,56.07
2019-04-16T13:16:04.384Z,52.13
2019-04-16T13:18:52.428Z,54.93
2019-04-16T13:21:26.492Z,54.73
2019-04-16T13:24:15.860Z,54.37
2019-04-16T13:27:11.416Z,52.17
2019-04-16T13:29:41.948Z,53.67
2019-04-16T13:32:12.432Z,50.47
2019-04-16T13:34:42.992Z,47.43
2019-04-16T13:37:13.644Z,50.70
2019-04-16T13:40:03.115Z,49.37
2019-04-16T13:42:33.737Z,47.07
2019-04-16T13:45:18.836Z,49.47
2019-04-16T13:47:54.831Z,49.00
2019-04-16T13:50:26.188Z,46.87
2019-04-16T13:53:02.962Z,51.40
2019-04-16T13:55:55.473Z,47.27
2019-04-16T13:58:38.306Z,49.97
2019-04-16T14:01:21.132Z,50.07
2019-04-16T14:03:56.120Z,49.90
2019-04-16T14:06:23.896Z,48.00
2019-04-16T14:08:54.405Z,51.47
2019-04-16T14:11:24.918Z,50.43
2019-04-16T14:13:55.482Z,47.37
2019-04-16T14:16:25.977Z,47.70
2019-04-16T14:18:56.469Z,52.63
2019-04-16T14:21:28.005Z,51.43
2019-04-16T14:23:58.746Z,52.67
2019-04-16T14:26:29.256Z,48.83
2019-04-16T14:29:05.535Z,47.47
2019-04-16T14:31:32.101Z,53.73
2019-04-16T14:34:11.053Z,52.07
2019-04-16T14:36:41.777Z,52.57
2019-04-16T14:39:29.804Z,49.10
2019-04-16T14:42:00.352Z,56.03
2019-04-16T14:44:35.326Z,47.57
2019-04-16T14:47:05.904Z,51.50
2019-04-16T14:49:36.482Z,48.63
2019-04-16T14:52:07.021Z,49.97
2019-04-16T14:54:56.413Z,51.37
2019-04-16T14:57:26.986Z,46.93
2019-04-16T15:00:22.258Z,50.03
2019-04-16T15:05:47.315Z,50.37
2019-04-16T15:08:33.368Z,49.03
2019-04-16T15:11:35.018Z,49.40
2019-04-16T15:14:23.380Z,48.83
2019-04-16T15:17:13.535Z,51.13
2019-04-16T15:19:47.459Z,57.20
2019-04-16T15:22:31.507Z,52.97
2019-04-16T15:25:24.173Z,49.27
2019-04-16T15:28:13.956Z,54.13
2019-04-16T15:30:51.119Z,53.40
2019-04-16T15:33:55.772Z,50.43
2019-04-16T15:36:32.327Z,51.07
2019-04-16T15:39:15.173Z,46.40
2019-04-16T15:42:19.569Z,53.13
2019-04-16T15:44:56.319Z,50.40
2019-04-16T15:47:36.877Z,53.03
2019-04-16T15:50:44.409Z,57.40
2019-04-16T15:53:32.551Z,52.27
2019-04-16T15:56:15.569Z,56.40
2019-04-16T15:59:05.006Z,54.30
2019-04-16T16:02:03.714Z,53.93
2019-04-16T16:04:44.600Z,54.07
2019-04-16T16:07:18.214Z,53.50
2019-04-16T16:10:19.564Z,52.53
2019-04-16T16:12:50.829Z,47.70
2019-04-16T16:15:22.280Z,51.07
2019-04-16T16:17:52.891Z,53.33
2019-04-16T16:20:23.442Z,53.60
2019-04-16T16:22:54.592Z,51.80
2019-04-16T16:25:26.216Z,51.17
2019-04-16T16:27:56.779Z,47.50
2019-04-16T16:30:28.305Z,50.57
2019-04-16T16:32:58.895Z,50.60
2019-04-16T16:35:29.508Z,52.30
2019-04-16T16:38:00.105Z,55.30
2019-04-16T16:40:30.649Z,50.63
2019-04-16T16:43:06.247Z,52.67
2019-04-16T16:45:58.624Z,48.83
2019-04-16T16:48:29.845Z,48.87
2019-04-16T16:51:00.409Z,50.60
2019-04-16T16:53:40.723Z,48.67
2019-04-16T16:56:17.085Z,50.23
2019-04-16T16:59:19.736Z,47.77
2019-04-16T17:02:10.264Z,47.73
2019-04-16T17:04:43.976Z,47.70
2019-04-16T17:07:17.637Z,50.73
2019-04-16T17:09:46.825Z,48.53
2019-04-16T17:12:17.304Z,48.17
2019-04-16T17:14:47.900Z,48.33
2019-04-16T17:17:18.385Z,45.97
2019-04-16T17:19:50.901Z,50.87
2019-04-16T17:22:21.143Z,49.57
2019-04-16T17:24:51.742Z,50.93
2019-04-16T17:27:22.290Z,44.03
2019-04-16T17:29:52.856Z,45.37
2019-04-16T17:32:23.774Z,47.17
2019-04-16T17:34:54.385Z,46.33
2019-04-16T17:37:28.015Z,45.57
2019-04-16T17:40:07.615Z,45.47
2019-04-16T17:42:43.396Z,44.90
2019-04-16T17:45:36.275Z,44.90
2019-04-16T17:48:21.036Z,44.63
2019-04-16T17:51:12.220Z,42.57
2019-04-16T17:53:51.897Z,46.67
2019-04-16T17:56:39.734Z,47.10
2019-04-16T17:59:13.796Z,48.17
2019-04-16T18:02:03.296Z,50.67
2019-04-16T18:05:07.817Z,53.23
2019-04-16T18:08:03.487Z,53.17
2019-04-16T18:10:57.524Z,47.50
2019-04-16T18:13:48.082Z,46.20
2019-04-16T18:16:29.172Z,49.53
2019-04-16T18:19:14.359Z,47.37
2019-04-16T18:22:05.464Z,49.87
2019-04-16T18:24:53.634Z,55.60
2019-04-16T18:27:46.077Z,49.27
2019-04-16T18:30:38.289Z,54.17
2019-04-16T18:33:15.643Z,48.87
2019-04-16T18:36:02.042Z,52.17
2019-04-16T18:39:05.144Z,54.53
2019-04-16T18:41:46.621Z,54.37
2019-04-16T18:44:34.764Z,51.40
2019-04-16T18:47:27.353Z,57.37
2019-04-16T18:50:00.506Z,49.87
2019-04-16T18:52:31.156Z,53.43
2019-04-16T18:55:01.698Z,51.87
2019-04-16T18:57:35.554Z,52.57
2019-04-16T19:00:09.596Z,55.00
2019-04-16T19:02:42.731Z,53.27
2019-04-16T19:05:13.384Z,51.93
2019-04-16T19:07:44.011Z,53.97
2019-04-16T19:10:14.694Z,57.20
2019-04-16T19:12:45.292Z,58.07
2019-04-16T19:15:15.818Z,49.77
2019-04-16T19:17:46.517Z,48.87
2019-04-16T19:20:17.675Z,50.10
2019-04-16T19:22:50.751Z,53.57
2019-04-16T19:25:21.446Z,54.20
2019-04-16T19:27:53.110Z,55.13
2019-04-16T19:30:24.003Z,53.90
2019-04-16T19:32:54.644Z,56.90
2019-04-16T19:35:25.357Z,49.97
2019-04-16T19:37:56.007Z,51.57
2019-04-16T19:40:27.564Z,50.10
2019-04-16T19:43:02.615Z,53.23
2019-04-16T19:45:30.384Z,55.57
2019-04-16T19:48:02.159Z,53.07
2019-04-16T19:50:36.507Z,55.80
2019-04-16T19:53:06.430Z,54.93
2019-04-16T19:55:37.156Z,52.80
2019-04-16T19:58:07.810Z,53.17
2019-04-16T20:00:38.551Z,55.57
2019-04-16T20:03:09.234Z,53.17
2019-04-16T20:05:39.839Z,56.90
2019-04-16T20:08:10.513Z,53.93
2019-04-16T20:10:41.128Z,54.90
2019-04-16T20:13:11.862Z,53.10
2019-04-16T20:15:43.667Z,53.70
2019-04-16T20:18:14.888Z,57.37
2019-04-16T20:20:47.083Z,52.77
2019-04-16T20:23:17.808Z,53.37
2019-04-16T20:25:48.436Z,57.97
2019-04-16T20:28:19.026Z,57.53
2019-04-16T20:30:49.666Z,52.10
2019-04-16T20:33:20.375Z,57.87
2019-04-16T20:35:53.056Z,53.23
2019-04-16T20:38:28.995Z,57.33
2019-04-16T20:40:56.489Z,58.63
2019-04-16T20:43:27.869Z,59.17
2019-04-16T20:45:58.759Z,64.60
2019-04-16T20:48:29.478Z,61.73
2019-04-16T20:51:00.358Z,60.73
2019-04-16T20:53:31.013Z,62.80
2019-04-16T20:56:01.896Z,62.10
2019-04-16T20:58:32.750Z,63.20
2019-04-16T21:01:03.964Z,58.83
2019-04-16T21:03:34.591Z,63.67
2019-04-16T21:06:07.871Z,64.03
2019-04-16T21:08:37.434Z,59.93
2019-04-16T21:11:09.511Z,62.80
2019-04-16T21:13:40.526Z,61.90
2019-04-16T21:16:11.124Z,60.53
2019-04-16T21:18:41.840Z,60.03
2019-04-16T21:21:12.495Z,64.37
2019-04-16T21:23:43.093Z,60.77
2019-04-16T21:26:16.551Z,66.20
2019-04-16T21:29:02.128Z,64.50
2019-04-16T21:31:35.815Z,61.53
2019-04-16T21:34:29.518Z,63.63
2019-04-16T21:37:19.919Z,64.33
2019-04-16T21:39:55.601Z,63.77
2019-04-16T21:42:26.236Z,67.83
2019-04-16T21:44:56.875Z,62.30
2019-04-16T21:47:27.568Z,66.10
2019-04-16T21:49:58.222Z,68.50
2019-04-16T21:52:28.902Z,62.00
2019-04-16T21:55:02.528Z,65.80
2019-04-16T21:57:31.742Z,62.50
2019-04-16T22:00:03.543Z,72.20
2019-04-16T22:02:37.976Z,82.17
2019-04-16T22:05:11.632Z,65.47
2019-04-16T22:07:42.441Z,65.07
2019-04-16T22:10:13.105Z,67.33
2019-04-16T22:12:44.715Z,70.73
2019-04-16T22:15:16.229Z,64.23
2019-04-16T22:17:46.875Z,68.37
2019-04-16T22:20:17.509Z,66.50
2019-04-16T22:22:48.141Z,66.47
2019-04-16T22:25:18.726Z,64.73
2019-04-16T22:27:49.352Z,69.30
2019-04-16T22:33:05.678Z,70.93
2019-04-16T22:35:34.516Z,81.57
2019-04-16T22:38:05.148Z,75.60
2019-04-16T22:41:03.791Z,81.43
2019-04-16T22:43:54.204Z,85.43
2019-04-16T22:46:28.788Z,85.47
2019-04-16T22:48:59.870Z,88.70
2019-04-16T22:51:30.397Z,90.13
2019-04-16T22:54:00.890Z,92.63
2019-04-16T22:56:44.740Z,94.00
2019-04-16T22:59:15.346Z,94.33
2019-04-16T23:01:46.056Z,96.80
2019-04-16T23:04:16.659Z,92.27
2019-04-16T23:06:47.208Z,93.37
2019-04-16T23:09:18.106Z,93.80
2019-04-16T23:11:48.668Z,89.43
2019-04-16T23:14:19.241Z,93.90
2019-04-16T23:16:49.769Z,90.17
2019-04-16T23:19:21.289Z,96.80
2019-04-16T23:21:51.765Z,94.70
2019-04-16T23:24:23.397Z,103.73
2019-04-16T23:26:54.485Z,98.83
2019-04-16T23:29:25.071Z,95.50
2019-04-16T23:31:56.276Z,103.03
2019-04-16T23:34:26.840Z,97.50
2019-04-16T23:36:57.415Z,102.83
2019-04-16T23:41:48.907Z,100.37
2019-04-16T23:44:30.680Z,96.10
2019-04-16T23:47:28.310Z,95.50
2019-04-16T23:50:13.130Z,97.43
2019-04-16T23:52:47.584Z,92.50
2019-04-16T23:55:35.964Z,96.43
2019-04-16T23:58:28.084Z,90.17
